sensor_id;sensor_type;location;lat;lon;timestamp;P1;durP1;ratioP1;P2;durP2;ratioP2
21233;SDS011;10774;42.178;26.578;2023-03-05T00:01:12;41.70;;;30.02;;
21233;SDS011;10774;42.178;26.578;2023-03-05T00:03:39;37.42;;;26.90;;
21233;SDS011;10774;42.178;26.578;2023-03-05T00:06:04;38.25;;;26.73;;
21233;SDS011;10774;42.178;26.578;2023-03-05T00:08:30;48.28;;;32.97;;
21233;SDS011;10774;42.178;26.578;2023-03-05T00:10:57;51.72;;;37.33;;
21233;SDS011;10774;42.178;26.578;2023-03-05T00:13:23;47.80;;;30.15;;
21233;SDS011;10774;42.178;26.578;2023-03-05T00:15:49;39.72;;;28.40;;
21233;SDS011;10774;42.178;26.578;2023-03-05T00:18:14;44.42;;;32.83;;
21233;SDS011;10774;42.178;26.578;2023-03-05T00:20:40;46.67;;;32.15;;
21233;SDS011;10774;42.178;26.578;2023-03-05T00:23:05;38.85;;;27.58;;
21233;SDS011;10774;42.178;26.578;2023-03-05T00:25:33;45.42;;;31.80;;
21233;SDS011;10774;42.178;26.578;2023-03-05T00:27:59;41.90;;;30.00;;
21233;SDS011;10774;42.178;26.578;2023-03-05T00:30:25;34.08;;;25.05;;
21233;SDS011;10774;42.178;26.578;2023-03-05T00:32:50;39.55;;;26.20;;
21233;SDS011;10774;42.178;26.578;2023-03-05T00:35:16;34.63;;;25.02;;
21233;SDS011;10774;42.178;26.578;2023-03-05T00:37:41;33.65;;;25.33;;
21233;SDS011;10774;42.178;26.578;2023-03-05T00:40:07;37.83;;;25.92;;
21233;SDS011;10774;42.178;26.578;2023-03-05T00:42:33;35.75;;;25.02;;
21233;SDS011;10774;42.178;26.578;2023-03-05T00:45:02;51.05;;;35.08;;
21233;SDS011;10774;42.178;26.578;2023-03-05T00:47:31;44.92;;;31.77;;
21233;SDS011;10774;42.178;26.578;2023-03-05T00:49:56;40.50;;;28.67;;
21233;SDS011;10774;42.178;26.578;2023-03-05T00:52:22;41.40;;;28.63;;
21233;SDS011;10774;42.178;26.578;2023-03-05T00:54:47;41.28;;;29.85;;
21233;SDS011;10774;42.178;26.578;2023-03-05T00:57:13;41.15;;;29.13;;
21233;SDS011;10774;42.178;26.578;2023-03-05T00:59:38;39.03;;;27.67;;
21233;SDS011;10774;42.178;26.578;2023-03-05T01:02:03;46.88;;;28.98;;
21233;SDS011;10774;42.178;26.578;2023-03-05T01:04:29;62.92;;;40.22;;
21233;SDS011;10774;42.178;26.578;2023-03-05T01:06:55;49.60;;;33.97;;
21233;SDS011;10774;42.178;26.578;2023-03-05T01:09:20;44.42;;;29.60;;
21233;SDS011;10774;42.178;26.578;2023-03-05T01:11:46;40.53;;;29.60;;
21233;SDS011;10774;42.178;26.578;2023-03-05T01:14:11;38.92;;;28.02;;
21233;SDS011;10774;42.178;26.578;2023-03-05T01:16:37;35.60;;;26.42;;
21233;SDS011;10774;42.178;26.578;2023-03-05T01:19:03;49.05;;;33.50;;
21233;SDS011;10774;42.178;26.578;2023-03-05T01:21:28;46.00;;;29.80;;
21233;SDS011;10774;42.178;26.578;2023-03-05T01:23:54;36.38;;;26.98;;
21233;SDS011;10774;42.178;26.578;2023-03-05T01:26:19;32.55;;;24.17;;
21233;SDS011;10774;42.178;26.578;2023-03-05T01:28:45;33.95;;;22.85;;
21233;SDS011;10774;42.178;26.578;2023-03-05T01:31:10;31.90;;;23.25;;
21233;SDS011;10774;42.178;26.578;2023-03-05T01:33:36;31.02;;;22.33;;
21233;SDS011;10774;42.178;26.578;2023-03-05T01:36:05;32.67;;;22.42;;
21233;SDS011;10774;42.178;26.578;2023-03-05T01:38:32;36.83;;;23.83;;
21233;SDS011;10774;42.178;26.578;2023-03-05T01:40:57;35.08;;;26.80;;
21233;SDS011;10774;42.178;26.578;2023-03-05T01:43:24;37.53;;;26.67;;
21233;SDS011;10774;42.178;26.578;2023-03-05T01:48:43;42.92;;;28.35;;
21233;SDS011;10774;42.178;26.578;2023-03-05T01:51:12;38.42;;;28.35;;
21233;SDS011;10774;42.178;26.578;2023-03-05T01:53:37;41.50;;;29.20;;
21233;SDS011;10774;42.178;26.578;2023-03-05T01:56:04;39.55;;;28.40;;
21233;SDS011;10774;42.178;26.578;2023-03-05T01:58:30;48.25;;;31.77;;
21233;SDS011;10774;42.178;26.578;2023-03-05T02:00:55;46.10;;;30.55;;
21233;SDS011;10774;42.178;26.578;2023-03-05T02:03:21;45.65;;;31.23;;
21233;SDS011;10774;42.178;26.578;2023-03-05T02:05:48;33.55;;;24.88;;
21233;SDS011;10774;42.178;26.578;2023-03-05T02:08:17;38.22;;;24.90;;
21233;SDS011;10774;42.178;26.578;2023-03-05T02:10:48;37.10;;;26.60;;
21233;SDS011;10774;42.178;26.578;2023-03-05T02:13:19;36.15;;;25.45;;
21233;SDS011;10774;42.178;26.578;2023-03-05T02:15:49;39.25;;;25.20;;
21233;SDS011;10774;42.178;26.578;2023-03-05T02:18:17;34.40;;;24.23;;
21233;SDS011;10774;42.178;26.578;2023-03-05T02:20:48;33.83;;;23.73;;
21233;SDS011;10774;42.178;26.578;2023-03-05T02:23:33;33.85;;;24.50;;
21233;SDS011;10774;42.178;26.578;2023-03-05T02:26:03;33.55;;;22.58;;
21233;SDS011;10774;42.178;26.578;2023-03-05T02:28:33;33.80;;;22.65;;
21233;SDS011;10774;42.178;26.578;2023-03-05T02:31:12;32.55;;;23.48;;
21233;SDS011;10774;42.178;26.578;2023-03-05T02:33:39;35.80;;;24.63;;
21233;SDS011;10774;42.178;26.578;2023-03-05T02:36:05;36.38;;;25.88;;
21233;SDS011;10774;42.178;26.578;2023-03-05T02:38:32;34.10;;;24.08;;
21233;SDS011;10774;42.178;26.578;2023-03-05T02:40:57;33.33;;;23.60;;
21233;SDS011;10774;42.178;26.578;2023-03-05T02:43:23;30.67;;;22.02;;
21233;SDS011;10774;42.178;26.578;2023-03-05T02:45:48;29.40;;;21.67;;
21233;SDS011;10774;42.178;26.578;2023-03-05T02:48:14;31.00;;;22.10;;
21233;SDS011;10774;42.178;26.578;2023-03-05T02:50:40;30.70;;;22.08;;
21233;SDS011;10774;42.178;26.578;2023-03-05T02:53:05;33.17;;;23.85;;
21233;SDS011;10774;42.178;26.578;2023-03-05T02:55:31;37.70;;;25.35;;
21233;SDS011;10774;42.178;26.578;2023-03-05T02:57:56;34.20;;;24.65;;
21233;SDS011;10774;42.178;26.578;2023-03-05T03:00:22;28.10;;;21.25;;
21233;SDS011;10774;42.178;26.578;2023-03-05T03:02:47;29.33;;;21.45;;
21233;SDS011;10774;42.178;26.578;2023-03-05T03:05:13;29.35;;;20.85;;
21233;SDS011;10774;42.178;26.578;2023-03-05T03:07:38;28.70;;;20.65;;
21233;SDS011;10774;42.178;26.578;2023-03-05T03:10:04;28.38;;;22.42;;
21233;SDS011;10774;42.178;26.578;2023-03-05T03:12:30;28.38;;;21.15;;
21233;SDS011;10774;42.178;26.578;2023-03-05T03:14:55;38.15;;;26.88;;
21233;SDS011;10774;42.178;26.578;2023-03-05T03:17:21;40.55;;;27.13;;
21233;SDS011;10774;42.178;26.578;2023-03-05T03:19:46;29.60;;;23.27;;
21233;SDS011;10774;42.178;26.578;2023-03-05T03:22:13;32.22;;;23.35;;
21233;SDS011;10774;42.178;26.578;2023-03-05T03:24:41;48.22;;;28.02;;
21233;SDS011;10774;42.178;26.578;2023-03-05T03:27:08;60.20;;;34.20;;
21233;SDS011;10774;42.178;26.578;2023-03-05T03:29:34;53.70;;;33.17;;
21233;SDS011;10774;42.178;26.578;2023-03-05T03:31:59;48.70;;;30.20;;
21233;SDS011;10774;42.178;26.578;2023-03-05T03:34:25;37.67;;;26.88;;
21233;SDS011;10774;42.178;26.578;2023-03-05T03:36:51;39.05;;;27.58;;
21233;SDS011;10774;42.178;26.578;2023-03-05T03:39:19;38.30;;;27.60;;
21233;SDS011;10774;42.178;26.578;2023-03-05T03:41:47;38.15;;;28.15;;
21233;SDS011;10774;42.178;26.578;2023-03-05T03:44:14;39.97;;;28.42;;
21233;SDS011;10774;42.178;26.578;2023-03-05T03:46:42;46.22;;;35.17;;
21233;SDS011;10774;42.178;26.578;2023-03-05T03:49:10;44.80;;;31.33;;
21233;SDS011;10774;42.178;26.578;2023-03-05T03:51:40;45.22;;;34.22;;
21233;SDS011;10774;42.178;26.578;2023-03-05T03:54:05;56.20;;;43.85;;
21233;SDS011;10774;42.178;26.578;2023-03-05T03:56:31;55.63;;;42.60;;
21233;SDS011;10774;42.178;26.578;2023-03-05T03:58:56;37.13;;;28.13;;
21233;SDS011;10774;42.178;26.578;2023-03-05T04:01:21;36.38;;;24.33;;
21233;SDS011;10774;42.178;26.578;2023-03-05T04:03:47;30.60;;;21.17;;
21233;SDS011;10774;42.178;26.578;2023-03-05T04:06:12;32.90;;;22.40;;
21233;SDS011;10774;42.178;26.578;2023-03-05T04:08:38;32.78;;;22.95;;
21233;SDS011;10774;42.178;26.578;2023-03-05T04:11:04;33.10;;;22.17;;
21233;SDS011;10774;42.178;26.578;2023-03-05T04:13:29;35.33;;;22.40;;
21233;SDS011;10774;42.178;26.578;2023-03-05T04:15:55;29.05;;;20.67;;
21233;SDS011;10774;42.178;26.578;2023-03-05T04:18:21;35.47;;;22.45;;
21233;SDS011;10774;42.178;26.578;2023-03-05T04:20:46;29.95;;;20.52;;
21233;SDS011;10774;42.178;26.578;2023-03-05T04:23:12;28.00;;;20.80;;
21233;SDS011;10774;42.178;26.578;2023-03-05T04:25:37;26.90;;;19.17;;
21233;SDS011;10774;42.178;26.578;2023-03-05T04:28:03;38.95;;;22.80;;
21233;SDS011;10774;42.178;26.578;2023-03-05T04:30:28;36.15;;;22.75;;
21233;SDS011;10774;42.178;26.578;2023-03-05T04:32:55;47.25;;;26.45;;
21233;SDS011;10774;42.178;26.578;2023-03-05T04:35:20;62.90;;;28.98;;
21233;SDS011;10774;42.178;26.578;2023-03-05T04:37:46;47.55;;;28.48;;
21233;SDS011;10774;42.178;26.578;2023-03-05T04:40:12;94.80;;;34.22;;
21233;SDS011;10774;42.178;26.578;2023-03-05T04:42:37;149.48;;;40.58;;
21233;SDS011;10774;42.178;26.578;2023-03-05T04:45:03;173.35;;;38.50;;
21233;SDS011;10774;42.178;26.578;2023-03-05T04:47:30;97.57;;;34.67;;
21233;SDS011;10774;42.178;26.578;2023-03-05T04:49:56;63.65;;;34.47;;
21233;SDS011;10774;42.178;26.578;2023-03-05T04:52:21;67.07;;;38.00;;
21233;SDS011;10774;42.178;26.578;2023-03-05T04:54:47;87.18;;;34.05;;
21233;SDS011;10774;42.178;26.578;2023-03-05T04:57:12;60.53;;;30.63;;
21233;SDS011;10774;42.178;26.578;2023-03-05T04:59:38;70.20;;;34.58;;
21233;SDS011;10774;42.178;26.578;2023-03-05T05:02:03;75.53;;;33.38;;
21233;SDS011;10774;42.178;26.578;2023-03-05T05:04:29;66.15;;;33.38;;
21233;SDS011;10774;42.178;26.578;2023-03-05T05:06:56;55.38;;;31.50;;
21233;SDS011;10774;42.178;26.578;2023-03-05T05:09:22;331.27;;;157.73;;
21233;SDS011;10774;42.178;26.578;2023-03-05T05:11:48;84.30;;;47.10;;
21233;SDS011;10774;42.178;26.578;2023-03-05T05:14:14;73.97;;;45.42;;
21233;SDS011;10774;42.178;26.578;2023-03-05T05:16:39;74.97;;;42.08;;
21233;SDS011;10774;42.178;26.578;2023-03-05T05:19:05;78.57;;;43.78;;
21233;SDS011;10774;42.178;26.578;2023-03-05T05:21:30;115.20;;;43.42;;
21233;SDS011;10774;42.178;26.578;2023-03-05T05:23:56;72.97;;;39.25;;
21233;SDS011;10774;42.178;26.578;2023-03-05T05:26:21;69.65;;;40.50;;
21233;SDS011;10774;42.178;26.578;2023-03-05T05:28:47;70.88;;;43.80;;
21233;SDS011;10774;42.178;26.578;2023-03-05T05:31:13;80.15;;;49.65;;
21233;SDS011;10774;42.178;26.578;2023-03-05T05:33:40;74.63;;;47.10;;
21233;SDS011;10774;42.178;26.578;2023-03-05T05:36:07;69.65;;;46.30;;
21233;SDS011;10774;42.178;26.578;2023-03-05T05:38:34;92.25;;;58.78;;
21233;SDS011;10774;42.178;26.578;2023-03-05T05:41:01;79.50;;;51.35;;
21233;SDS011;10774;42.178;26.578;2023-03-05T05:43:27;84.35;;;43.70;;
21233;SDS011;10774;42.178;26.578;2023-03-05T05:45:53;68.43;;;39.55;;
21233;SDS011;10774;42.178;26.578;2023-03-05T05:48:18;68.43;;;38.40;;
21233;SDS011;10774;42.178;26.578;2023-03-05T05:50:43;55.15;;;35.25;;
21233;SDS011;10774;42.178;26.578;2023-03-05T05:53:09;48.63;;;31.08;;
21233;SDS011;10774;42.178;26.578;2023-03-05T05:55:34;56.55;;;36.50;;
21233;SDS011;10774;42.178;26.578;2023-03-05T05:58:00;62.47;;;41.15;;
21233;SDS011;10774;42.178;26.578;2023-03-05T06:00:25;68.95;;;41.97;;
21233;SDS011;10774;42.178;26.578;2023-03-05T06:02:50;65.15;;;43.72;;
21233;SDS011;10774;42.178;26.578;2023-03-05T06:05:16;80.05;;;51.50;;
21233;SDS011;10774;42.178;26.578;2023-03-05T06:07:41;108.03;;;51.47;;
21233;SDS011;10774;42.178;26.578;2023-03-05T06:10:08;76.03;;;45.85;;
21233;SDS011;10774;42.178;26.578;2023-03-05T06:12:34;66.93;;;39.55;;
21233;SDS011;10774;42.178;26.578;2023-03-05T06:14:59;77.22;;;42.75;;
21233;SDS011;10774;42.178;26.578;2023-03-05T06:17:25;79.75;;;48.53;;
21233;SDS011;10774;42.178;26.578;2023-03-05T06:19:53;61.90;;;36.88;;
21233;SDS011;10774;42.178;26.578;2023-03-05T06:22:19;46.22;;;28.95;;
21233;SDS011;10774;42.178;26.578;2023-03-05T06:24:44;51.47;;;29.98;;
21233;SDS011;10774;42.178;26.578;2023-03-05T06:27:10;49.35;;;28.55;;
21233;SDS011;10774;42.178;26.578;2023-03-05T06:29:35;57.60;;;32.08;;
21233;SDS011;10774;42.178;26.578;2023-03-05T06:32:00;68.10;;;28.02;;
21233;SDS011;10774;42.178;26.578;2023-03-05T06:34:26;53.58;;;31.48;;
21233;SDS011;10774;42.178;26.578;2023-03-05T06:36:51;82.18;;;42.00;;
21233;SDS011;10774;42.178;26.578;2023-03-05T06:39:17;90.15;;;41.35;;
21233;SDS011;10774;42.178;26.578;2023-03-05T06:41:42;123.18;;;45.42;;
21233;SDS011;10774;42.178;26.578;2023-03-05T06:44:08;102.68;;;44.47;;
21233;SDS011;10774;42.178;26.578;2023-03-05T06:46:34;106.57;;;44.65;;
21233;SDS011;10774;42.178;26.578;2023-03-05T06:49:01;83.85;;;42.40;;
21233;SDS011;10774;42.178;26.578;2023-03-05T06:51:32;115.82;;;50.25;;
21233;SDS011;10774;42.178;26.578;2023-03-05T06:54:00;98.70;;;50.47;;
21233;SDS011;10774;42.178;26.578;2023-03-05T06:56:27;98.00;;;51.53;;
21233;SDS011;10774;42.178;26.578;2023-03-05T06:58:52;88.43;;;44.58;;
21233;SDS011;10774;42.178;26.578;2023-03-05T07:01:18;106.50;;;37.33;;
21233;SDS011;10774;42.178;26.578;2023-03-05T07:03:47;85.82;;;33.90;;
21233;SDS011;10774;42.178;26.578;2023-03-05T07:06:17;61.78;;;35.08;;
21233;SDS011;10774;42.178;26.578;2023-03-05T07:08:43;82.07;;;40.47;;
21233;SDS011;10774;42.178;26.578;2023-03-05T07:11:09;100.38;;;35.17;;
21233;SDS011;10774;42.178;26.578;2023-03-05T07:13:39;226.93;;;46.80;;
21233;SDS011;10774;42.178;26.578;2023-03-05T07:16:06;173.13;;;44.05;;
21233;SDS011;10774;42.178;26.578;2023-03-05T07:18:33;101.68;;;46.75;;
21233;SDS011;10774;42.178;26.578;2023-03-05T07:21:02;125.63;;;69.60;;
21233;SDS011;10774;42.178;26.578;2023-03-05T07:23:30;128.90;;;57.10;;
21233;SDS011;10774;42.178;26.578;2023-03-05T07:25:55;165.70;;;53.30;;
21233;SDS011;10774;42.178;26.578;2023-03-05T07:28:21;170.35;;;67.55;;
21233;SDS011;10774;42.178;26.578;2023-03-05T07:30:55;161.10;;;60.35;;
21233;SDS011;10774;42.178;26.578;2023-03-05T07:33:27;164.13;;;63.38;;
21233;SDS011;10774;42.178;26.578;2023-03-05T07:35:53;138.88;;;61.05;;
21233;SDS011;10774;42.178;26.578;2023-03-05T07:38:19;130.65;;;57.55;;
21233;SDS011;10774;42.178;26.578;2023-03-05T07:40:44;105.03;;;53.38;;
21233;SDS011;10774;42.178;26.578;2023-03-05T07:43:10;106.80;;;56.50;;
21233;SDS011;10774;42.178;26.578;2023-03-05T07:45:39;97.00;;;53.72;;
21233;SDS011;10774;42.178;26.578;2023-03-05T07:48:06;82.63;;;45.65;;
21233;SDS011;10774;42.178;26.578;2023-03-05T07:50:33;84.45;;;46.78;;
21233;SDS011;10774;42.178;26.578;2023-03-05T07:52:58;84.32;;;51.08;;
21233;SDS011;10774;42.178;26.578;2023-03-05T07:55:24;85.57;;;47.90;;
21233;SDS011;10774;42.178;26.578;2023-03-05T07:57:49;86.13;;;51.30;;
21233;SDS011;10774;42.178;26.578;2023-03-05T08:00:15;95.88;;;53.25;;
21233;SDS011;10774;42.178;26.578;2023-03-05T08:02:40;94.07;;;55.33;;
21233;SDS011;10774;42.178;26.578;2023-03-05T08:05:06;88.63;;;51.22;;
21233;SDS011;10774;42.178;26.578;2023-03-05T08:07:32;83.25;;;51.42;;
21233;SDS011;10774;42.178;26.578;2023-03-05T08:09:57;88.72;;;50.08;;
21233;SDS011;10774;42.178;26.578;2023-03-05T08:12:22;92.80;;;55.10;;
21233;SDS011;10774;42.178;26.578;2023-03-05T08:14:48;89.15;;;54.88;;
21233;SDS011;10774;42.178;26.578;2023-03-05T08:17:15;89.43;;;51.70;;
21233;SDS011;10774;42.178;26.578;2023-03-05T08:19:40;87.75;;;54.15;;
21233;SDS011;10774;42.178;26.578;2023-03-05T08:22:06;86.90;;;51.97;;
21233;SDS011;10774;42.178;26.578;2023-03-05T08:24:31;94.35;;;56.10;;
21233;SDS011;10774;42.178;26.578;2023-03-05T08:26:57;93.07;;;56.35;;
21233;SDS011;10774;42.178;26.578;2023-03-05T08:29:23;82.22;;;48.97;;
21233;SDS011;10774;42.178;26.578;2023-03-05T08:31:49;81.82;;;44.88;;
21233;SDS011;10774;42.178;26.578;2023-03-05T08:34:15;73.57;;;43.97;;
21233;SDS011;10774;42.178;26.578;2023-03-05T08:36:41;74.20;;;43.35;;
21233;SDS011;10774;42.178;26.578;2023-03-05T08:39:06;77.53;;;47.38;;
21233;SDS011;10774;42.178;26.578;2023-03-05T08:41:33;77.78;;;48.10;;
21233;SDS011;10774;42.178;26.578;2023-03-05T08:43:59;85.65;;;51.42;;
21233;SDS011;10774;42.178;26.578;2023-03-05T08:46:25;84.85;;;51.38;;
21233;SDS011;10774;42.178;26.578;2023-03-05T08:48:50;87.25;;;52.35;;
21233;SDS011;10774;42.178;26.578;2023-03-05T08:51:17;86.32;;;52.13;;
21233;SDS011;10774;42.178;26.578;2023-03-05T08:53:45;90.00;;;53.28;;
21233;SDS011;10774;42.178;26.578;2023-03-05T08:56:11;83.70;;;50.35;;
21233;SDS011;10774;42.178;26.578;2023-03-05T08:58:37;85.35;;;51.63;;
21233;SDS011;10774;42.178;26.578;2023-03-05T09:01:03;83.22;;;50.25;;
21233;SDS011;10774;42.178;26.578;2023-03-05T09:03:29;82.45;;;49.72;;
21233;SDS011;10774;42.178;26.578;2023-03-05T09:05:57;83.38;;;51.88;;
21233;SDS011;10774;42.178;26.578;2023-03-05T09:08:24;88.35;;;52.35;;
21233;SDS011;10774;42.178;26.578;2023-03-05T09:10:50;75.85;;;45.03;;
21233;SDS011;10774;42.178;26.578;2023-03-05T09:13:15;74.88;;;47.60;;
21233;SDS011;10774;42.178;26.578;2023-03-05T09:15:41;79.22;;;47.08;;
21233;SDS011;10774;42.178;26.578;2023-03-05T09:18:06;68.63;;;42.67;;
21233;SDS011;10774;42.178;26.578;2023-03-05T09:20:33;62.30;;;41.35;;
21233;SDS011;10774;42.178;26.578;2023-03-05T09:22:59;62.50;;;41.42;;
21233;SDS011;10774;42.178;26.578;2023-03-05T09:25:25;55.75;;;38.72;;
21233;SDS011;10774;42.178;26.578;2023-03-05T09:27:50;51.88;;;36.55;;
21233;SDS011;10774;42.178;26.578;2023-03-05T09:30:16;51.72;;;32.65;;
21233;SDS011;10774;42.178;26.578;2023-03-05T09:32:41;51.85;;;35.50;;
21233;SDS011;10774;42.178;26.578;2023-03-05T09:35:07;45.33;;;29.63;;
21233;SDS011;10774;42.178;26.578;2023-03-05T09:37:33;43.58;;;28.20;;
21233;SDS011;10774;42.178;26.578;2023-03-05T09:39:58;47.38;;;29.17;;
21233;SDS011;10774;42.178;26.578;2023-03-05T09:42:28;45.05;;;30.67;;
21233;SDS011;10774;42.178;26.578;2023-03-05T09:45:08;50.15;;;31.60;;
21233;SDS011;10774;42.178;26.578;2023-03-05T09:47:48;53.92;;;36.55;;
21233;SDS011;10774;42.178;26.578;2023-03-05T09:52:55;50.42;;;32.90;;
21233;SDS011;10774;42.178;26.578;2023-03-05T09:55:28;47.28;;;30.13;;
21233;SDS011;10774;42.178;26.578;2023-03-05T09:58:09;43.88;;;28.38;;
21233;SDS011;10774;42.178;26.578;2023-03-05T10:09:01;42.13;;;27.52;;
21233;SDS011;10774;42.178;26.578;2023-03-05T10:14:19;44.38;;;28.60;;
21233;SDS011;10774;42.178;26.578;2023-03-05T10:22:27;42.08;;;28.00;;
21233;SDS011;10774;42.178;26.578;2023-03-05T10:25:05;52.95;;;37.58;;
21233;SDS011;10774;42.178;26.578;2023-03-05T10:30:22;39.65;;;26.08;;
21233;SDS011;10774;42.178;26.578;2023-03-05T10:33:07;43.00;;;29.15;;
21233;SDS011;10774;42.178;26.578;2023-03-05T10:41:28;36.92;;;27.08;;
21233;SDS011;10774;42.178;26.578;2023-03-05T10:46:30;38.40;;;26.70;;
21233;SDS011;10774;42.178;26.578;2023-03-05T10:48:59;40.08;;;27.42;;
21233;SDS011;10774;42.178;26.578;2023-03-05T10:52:21;37.65;;;25.00;;
21233;SDS011;10774;42.178;26.578;2023-03-05T10:54:31;36.15;;;24.38;;
21233;SDS011;10774;42.178;26.578;2023-03-05T10:57:01;40.28;;;25.02;;
21233;SDS011;10774;42.178;26.578;2023-03-05T10:59:35;37.78;;;25.55;;
21233;SDS011;10774;42.178;26.578;2023-03-05T11:02:03;35.45;;;24.77;;
21233;SDS011;10774;42.178;26.578;2023-03-05T11:04:33;35.03;;;22.77;;
21233;SDS011;10774;42.178;26.578;2023-03-05T11:09:38;34.33;;;22.80;;
21233;SDS011;10774;42.178;26.578;2023-03-05T11:12:08;34.42;;;23.50;;
21233;SDS011;10774;42.178;26.578;2023-03-05T11:14:44;30.27;;;19.27;;
21233;SDS011;10774;42.178;26.578;2023-03-05T11:20:52;27.80;;;18.77;;
21233;SDS011;10774;42.178;26.578;2023-03-05T11:23:03;27.83;;;20.38;;
21233;SDS011;10774;42.178;26.578;2023-03-05T11:25:35;33.85;;;23.75;;
21233;SDS011;10774;42.178;26.578;2023-03-05T11:28:54;33.35;;;22.77;;
21233;SDS011;10774;42.178;26.578;2023-03-05T11:34:04;17.73;;;13.30;;
21233;SDS011;10774;42.178;26.578;2023-03-05T11:39:20;24.35;;;17.75;;
21233;SDS011;10774;42.178;26.578;2023-03-05T11:42:20;26.38;;;14.68;;
21233;SDS011;10774;42.178;26.578;2023-03-05T11:49:53;26.88;;;17.50;;
21233;SDS011;10774;42.178;26.578;2023-03-05T11:52:39;18.85;;;13.30;;
21233;SDS011;10774;42.178;26.578;2023-03-05T11:55:17;57.65;;;27.52;;
21233;SDS011;10774;42.178;26.578;2023-03-05T11:57:50;103.07;;;48.33;;
21233;SDS011;10774;42.178;26.578;2023-03-05T12:00:29;55.72;;;28.13;;
21233;SDS011;10774;42.178;26.578;2023-03-05T12:02:58;37.00;;;20.30;;
21233;SDS011;10774;42.178;26.578;2023-03-05T12:05:27;21.02;;;14.60;;
21233;SDS011;10774;42.178;26.578;2023-03-05T12:07:54;20.48;;;14.43;;
21233;SDS011;10774;42.178;26.578;2023-03-05T12:10:23;17.02;;;13.18;;
21233;SDS011;10774;42.178;26.578;2023-03-05T12:12:57;16.95;;;12.95;;
21233;SDS011;10774;42.178;26.578;2023-03-05T12:23:22;23.02;;;16.15;;
21233;SDS011;10774;42.178;26.578;2023-03-05T12:25:54;25.88;;;17.27;;
21233;SDS011;10774;42.178;26.578;2023-03-05T12:30:54;22.13;;;17.02;;
21233;SDS011;10774;42.178;26.578;2023-03-05T12:38:49;24.30;;;17.25;;
21233;SDS011;10774;42.178;26.578;2023-03-05T12:46:43;23.48;;;15.75;;
21233;SDS011;10774;42.178;26.578;2023-03-05T12:51:46;26.98;;;19.63;;
21233;SDS011;10774;42.178;26.578;2023-03-05T12:54:29;23.45;;;17.73;;
21233;SDS011;10774;42.178;26.578;2023-03-05T12:57:01;26.67;;;19.30;;
21233;SDS011;10774;42.178;26.578;2023-03-05T12:59:39;30.73;;;19.45;;
21233;SDS011;10774;42.178;26.578;2023-03-05T13:02:13;33.40;;;21.42;;
21233;SDS011;10774;42.178;26.578;2023-03-05T13:04:45;48.38;;;25.77;;
21233;SDS011;10774;42.178;26.578;2023-03-05T13:07:15;31.15;;;20.20;;
21233;SDS011;10774;42.178;26.578;2023-03-05T13:09:52;22.55;;;14.85;;
21233;SDS011;10774;42.178;26.578;2023-03-05T13:12:22;26.42;;;18.77;;
21233;SDS011;10774;42.178;26.578;2023-03-05T13:15:00;26.20;;;19.85;;
21233;SDS011;10774;42.178;26.578;2023-03-05T13:20:38;33.28;;;23.55;;
21233;SDS011;10774;42.178;26.578;2023-03-05T13:23:15;34.78;;;18.05;;
21233;SDS011;10774;42.178;26.578;2023-03-05T13:26:00;21.65;;;15.05;;
21233;SDS011;10774;42.178;26.578;2023-03-05T13:28:25;19.00;;;13.68;;
21233;SDS011;10774;42.178;26.578;2023-03-05T13:30:58;36.40;;;28.27;;
21233;SDS011;10774;42.178;26.578;2023-03-05T13:33:50;54.42;;;38.58;;
21233;SDS011;10774;42.178;26.578;2023-03-05T13:36:19;23.88;;;15.73;;
21233;SDS011;10774;42.178;26.578;2023-03-05T13:38:47;20.98;;;14.95;;
21233;SDS011;10774;42.178;26.578;2023-03-05T13:43:45;16.70;;;12.82;;
21233;SDS011;10774;42.178;26.578;2023-03-05T13:46:11;22.27;;;15.13;;
21233;SDS011;10774;42.178;26.578;2023-03-05T13:48:36;21.05;;;14.95;;
21233;SDS011;10774;42.178;26.578;2023-03-05T13:51:02;17.88;;;14.18;;
21233;SDS011;10774;42.178;26.578;2023-03-05T13:53:31;21.25;;;14.68;;
21233;SDS011;10774;42.178;26.578;2023-03-05T13:56:02;24.23;;;15.90;;
21233;SDS011;10774;42.178;26.578;2023-03-05T14:03:53;16.90;;;13.02;;
21233;SDS011;10774;42.178;26.578;2023-03-05T14:06:22;18.02;;;13.55;;
21233;SDS011;10774;42.178;26.578;2023-03-05T14:08:51;19.75;;;13.90;;
21233;SDS011;10774;42.178;26.578;2023-03-05T14:11:21;18.08;;;12.93;;
21233;SDS011;10774;42.178;26.578;2023-03-05T14:13:47;22.40;;;17.15;;
21233;SDS011;10774;42.178;26.578;2023-03-05T14:16:14;61.58;;;41.20;;
21233;SDS011;10774;42.178;26.578;2023-03-05T14:19:25;25.40;;;17.77;;
21233;SDS011;10774;42.178;26.578;2023-03-05T14:21:56;29.17;;;18.80;;
21233;SDS011;10774;42.178;26.578;2023-03-05T14:24:23;26.88;;;18.95;;
21233;SDS011;10774;42.178;26.578;2023-03-05T14:26:53;35.40;;;25.17;;
21233;SDS011;10774;42.178;26.578;2023-03-05T14:29:21;24.52;;;17.50;;
21233;SDS011;10774;42.178;26.578;2023-03-05T14:31:56;39.05;;;28.23;;
21233;SDS011;10774;42.178;26.578;2023-03-05T14:34:31;26.60;;;18.73;;
21233;SDS011;10774;42.178;26.578;2023-03-05T14:37:01;19.75;;;13.32;;
21233;SDS011;10774;42.178;26.578;2023-03-05T14:39:36;21.27;;;16.48;;
21233;SDS011;10774;42.178;26.578;2023-03-05T14:42:12;24.13;;;18.17;;
21233;SDS011;10774;42.178;26.578;2023-03-05T14:45:19;23.27;;;14.88;;
21233;SDS011;10774;42.178;26.578;2023-03-05T14:47:45;17.75;;;12.55;;
21233;SDS011;10774;42.178;26.578;2023-03-05T14:50:15;17.67;;;13.07;;
21233;SDS011;10774;42.178;26.578;2023-03-05T14:52:41;20.63;;;14.05;;
21233;SDS011;10774;42.178;26.578;2023-03-05T14:55:18;21.90;;;15.40;;
21233;SDS011;10774;42.178;26.578;2023-03-05T14:57:46;22.23;;;15.23;;
21233;SDS011;10774;42.178;26.578;2023-03-05T15:00:19;23.83;;;17.17;;
21233;SDS011;10774;42.178;26.578;2023-03-05T15:02:46;24.00;;;14.32;;
21233;SDS011;10774;42.178;26.578;2023-03-05T15:05:12;21.35;;;16.05;;
21233;SDS011;10774;42.178;26.578;2023-03-05T15:07:39;25.42;;;16.90;;
21233;SDS011;10774;42.178;26.578;2023-03-05T15:10:04;32.65;;;21.48;;
21233;SDS011;10774;42.178;26.578;2023-03-05T15:12:31;25.35;;;15.70;;
21233;SDS011;10774;42.178;26.578;2023-03-05T15:14:57;29.60;;;19.83;;
21233;SDS011;10774;42.178;26.578;2023-03-05T15:17:41;26.65;;;17.70;;
21233;SDS011;10774;42.178;26.578;2023-03-05T15:20:18;31.08;;;20.83;;
21233;SDS011;10774;42.178;26.578;2023-03-05T15:22:45;37.20;;;25.35;;
21233;SDS011;10774;42.178;26.578;2023-03-05T15:25:11;34.65;;;22.80;;
21233;SDS011;10774;42.178;26.578;2023-03-05T15:27:37;48.30;;;27.08;;
21233;SDS011;10774;42.178;26.578;2023-03-05T15:30:03;38.20;;;26.52;;
21233;SDS011;10774;42.178;26.578;2023-03-05T15:32:30;38.78;;;25.52;;
21233;SDS011;10774;42.178;26.578;2023-03-05T15:34:56;43.72;;;32.30;;
21233;SDS011;10774;42.178;26.578;2023-03-05T15:37:22;48.08;;;33.90;;
21233;SDS011;10774;42.178;26.578;2023-03-05T15:39:49;40.88;;;29.30;;